• Join FlightAware (Why Join?)
  • Login
  • US Flag 
12:32AM EST


 

Airport Tracker/Info


-or-


 

Live Flight TrackerFlight Track Log ✈ SWA3206 ✈ 03-May-2013 ✈ KPHX - KBWI

Flight Track Log - Related Links

Times and Time Zones

All times are in EDT time to prevent confusion due to time zone crossing. See the SWA3206 flight status page for this flight to view local times or setup timezone preferences in your user account.

Time Position Orientation Groundspeed Altitude Reporting Facility
EDT Latitude Longitude Course Direction KTS MPH feet Rate Location/Type
08:43PM 33.4333 -111.9833 90° East 178 205 2,000  Level Phoenix TRACON
08:44PM 33.4333 -111.9333 90° East 201 231 3,700 2,820 Climbing Phoenix TRACON
08:45PM 33.4500 -111.8500 76° East 263 303 6,800 3,120 Climbing Phoenix TRACON
08:46PM 33.4881 -111.7744 59° Northeast 285 328 10,500 2,760 Climbing Albuquerque Center
08:47PM 33.5444 -111.6561 60° Northeast 350 403 13,200 2,700 Climbing Albuquerque Center
08:48PM 33.5878 -111.5381 66° East 386 444 16,100 2,880 Climbing Albuquerque Center
08:49PM 33.6347 -111.4136 66° East 410 472 19,200 2,820 Climbing Albuquerque Center
08:50PM 33.6825 -111.2839 66° East 427 491 21,900 2,460 Climbing Albuquerque Center
08:51PM 33.7311 -111.1475 67° East 445 512 24,300 2,220 Climbing Albuquerque Center
08:52PM 33.7811 -111.0067 67° East 458 527 26,500 2,040 Climbing Albuquerque Center
08:53PM 33.8433 -110.8314 67° East 473 544 28,600 1,860 Climbing Albuquerque Center
08:54PM 33.8978 -110.6803 67° East 486 559 30,400 2,040 Climbing Albuquerque Center
08:55PM 33.9511 -110.5306 67° East 490 564 32,800 1,980 Climbing Albuquerque Center
08:56PM 34.0000 -110.3906 67° East 483 556 34,500 1,440 Climbing Albuquerque Center
08:57PM 34.0528 -110.2431 67° East 482 555 35,800 1,380 Climbing Albuquerque Center
08:58PM 34.1164 -110.0619 67° East 489 563 37,400 1,320 Climbing Albuquerque Center
08:59PM 34.1681 -109.9111 67° East 489 563 38,600 780 Climbing Albuquerque Center
09:00PM 34.2183 -109.7672 67° East 489 563 39,000 180 Climbing Albuquerque Center
09:01PM 34.2767 -109.5978 67° East 489 563 39,000  Level Albuquerque Center
09:02PM 34.3261 -109.4522 68° East 489 563 39,000  Level Albuquerque Center
09:03PM 34.3828 -109.2861 68° East 483 556 39,000  Level Albuquerque Center
09:04PM 34.4308 -109.1417 68° East 483 556 39,000  Level Albuquerque Center
09:05PM 34.4794 -109.0014 67° East 478 550 39,000  Level Albuquerque Center
09:06PM 34.5353 -108.8356 68° East 477 549 39,000 300 Level Albuquerque Center
09:07PM 34.5842 -108.6906 68° East 481 554 39,700 960 Climbing Albuquerque Center
09:08PM 34.6397 -108.5239 68° East 479 551 41,000 600 Climbing Albuquerque Center
09:09PM 34.6814 -108.3969 68° East 475 547 41,000  Level Albuquerque Center
09:10PM 34.7306 -108.2483 68° East 473 544 41,000  Level Albuquerque Center
09:11PM 34.7894 -108.0692 68° East 474 545 41,000  Level Albuquerque Center
09:12PM 34.8378 -107.9217 68° East 472 543 41,000  Level Albuquerque Center
09:13PM 34.8850 -107.7739 69° East 470 541 41,000  Level Albuquerque Center
09:14PM 34.9331 -107.6253 68° East 470 541 41,000  Level Albuquerque Center
09:16PM 34.9806 -107.4769 69° East 471 542 41,000  Level Albuquerque Center
09:17PM 35.0275 -107.3292 69° East 468 539 41,000  Level Albuquerque Center
09:18PM 35.0839 -107.1536 69° East 472 543 41,000  Level Albuquerque Center
09:19PM 35.1294 -107.0106 69° East 472 543 41,000  Level Albuquerque Center
09:20PM 35.1739 -106.8675 69° East 473 544 41,000  Level Albuquerque Center
09:21PM 35.2275 -106.6997 69° East 475 547 41,000  Level Albuquerque Center
09:22PM 35.2728 -106.5558 69° East 475 547 41,000  Level Albuquerque Center
09:23PM 35.3153 -106.4153 70° East 476 548 41,000  Level Albuquerque Center
09:24PM 35.3711 -106.2347 69° East 474 545 41,000  Level Albuquerque Center
09:25PM 35.4186 -106.0828 69° East 475 547 41,000  Level Albuquerque Center
09:26PM 35.4636 -105.9308 70° East 475 547 41,000  Level Albuquerque Center
09:27PM 35.5125 -105.7722 69° East 475 547 41,000  Level Albuquerque Center
09:28PM 35.5589 -105.6186 70° East 475 547 41,000  Level Albuquerque Center
09:29PM 35.6006 -105.4672 71° East 468 539 41,000  Level Albuquerque Center
09:30PM 35.6494 -105.3094 69° East 482 555 41,000  Level Albuquerque Center
09:31PM 35.6953 -105.1561 70° East 476 548 41,000  Level Albuquerque Center
09:32PM 35.7394 -105.0028 70° East 471 542 41,000  Level Albuquerque Center
09:33PM 35.7856 -104.8483 70° East 473 544 41,000  Level Albuquerque Center
09:34PM 35.8308 -104.6939 70° East 473 544 41,000  Level Albuquerque Center
09:35PM 35.8756 -104.5381 70° East 476 548 41,000  Level Albuquerque Center
09:36PM 35.9214 -104.3819 70° East 477 549 41,000  Level Albuquerque Center
09:37PM 35.9664 -104.2247 70° East 479 551 41,000  Level Albuquerque Center
09:38PM 36.0111 -104.0675 71° East 480 552 41,000  Level Albuquerque Center
09:39PM 36.0558 -103.9086 71° East 483 556 41,000  Level Albuquerque Center
09:40PM 36.1069 -103.7300 70° East 472 543 41,000  Level Albuquerque Center
09:41PM 36.1519 -103.5769 70° East 469 540 41,000  Level Albuquerque Center
09:42PM 36.1942 -103.4239 71° East 466 536 41,000  Level Albuquerque Center
09:43PM 36.2369 -103.2703 71° East 466 536 41,000  Level Albuquerque Center
09:44PM 36.2772 -103.1142 72° East 470 541 41,000  Level Albuquerque Center
09:45PM 36.3206 -102.9578 71° East 474 545 41,000  Level Albuquerque Center
09:46PM 36.3581 -102.8197 71° East 470 541 41,000  Level Albuquerque Center
09:47PM 36.3997 -102.6697 71° East 462 532 41,000  Level Albuquerque Center
09:48PM 36.4497 -102.4858 71° East 466 536 41,000  Level Albuquerque Center
09:49PM 36.4897 -102.3358 72° East 462 532 41,000  Level Albuquerque Center
09:50PM 36.5289 -102.1869 72° East 455 524 41,000  Level Albuquerque Center
09:51PM 36.5678 -102.0372 72° East 455 524 41,000  Level Albuquerque Center
09:52PM 36.6067 -101.8911 72° East 455 524 41,000  Level Albuquerque Center
09:53PM 36.6517 -101.7208 72° East 461 531 41,000  Level Albuquerque Center
09:54PM 36.6886 -101.5731 73° East 466 536 41,000  Level Albuquerque Center
09:55PM 36.7267 -101.4289 72° East 464 534 41,000  Level Albuquerque Center
09:57PM 36.7764 -101.2372 72° East 458 527 41,000  Level Kansas City Center
09:58PM 36.8194 -101.0686 72° East 458 527 41,000  Level Kansas City Center
09:59PM 36.8556 -100.9244 73° East 458 527 41,000  Level Kansas City Center
10:00PM 36.8975 -100.7572 73° East 456 525 41,000  Level Kansas City Center
10:01PM 36.9344 -100.6119 72° East 457 526 41,000  Level Kansas City Center
10:02PM 36.9764 -100.4422 73° East 461 531 41,000  Level Kansas City Center
10:03PM 37.0131 -100.2956 73° East 463 533 41,000  Level Kansas City Center
10:04PM 37.0553 -100.1281 72° East 458 527 41,000  Level Kansas City Center
10:05PM 37.0911 -99.9839 73° East 455 524 41,000  Level Kansas City Center
10:06PM 37.1264 -99.8383 73° East 456 525 41,000  Level Kansas City Center
10:07PM 37.1661 -99.6700 73° East 454 522 41,000  Level Kansas City Center
10:08PM 37.2022 -99.5250 73° East 457 526 41,000  Level Kansas City Center
10:09PM 37.2403 -99.3658 73° East 456 525 41,000  Level Kansas City Center
10:10PM 37.2761 -99.2114 74° East 460 529 41,000  Level Kansas City Center
10:11PM 37.3125 -99.0575 73° East 460 529 41,000  Level Kansas City Center
10:12PM 37.3497 -98.9028 73° East 462 532 41,000  Level Kansas City Center
10:13PM 37.3836 -98.7486 74° East 461 531 41,000  Level Kansas City Center
10:14PM 37.4183 -98.5928 74° East 462 532 41,000  Level Kansas City Center
10:15PM 37.4603 -98.4086 74° East 459 528 41,000  Level Kansas City Center
10:16PM 37.4947 -98.2567 74° East 456 525 41,000  Level Kansas City Center
10:17PM 37.5294 -98.1039 74° East 457 526 41,000  Level Kansas City Center
10:18PM 37.5622 -97.9536 75° East 451 519 41,000  Level Kansas City Center
10:19PM 37.5958 -97.8031 74° East 451 519 41,000  Level Kansas City Center
10:20PM 37.6297 -97.6550 74° East 446 513 41,000  Level Kansas City Center
10:21PM 37.6617 -97.5044 75° East 448 516 41,000  Level Kansas City Center
10:22PM 37.7014 -97.3244 74° East 448 516 41,000  Level Kansas City Center
10:23PM 37.7344 -97.1733 74° East 448 516 41,000  Level Kansas City Center
10:24PM 37.7661 -97.0217 75° East 447 514 41,000  Level Kansas City Center
10:25PM 37.7992 -96.8700 75° East 449 517 41,000  Level Kansas City Center
10:26PM 37.8314 -96.7172 75° East 450 518 41,000  Level Kansas City Center
10:27PM 37.8636 -96.5633 75° East 452 520 41,000  Level Kansas City Center
10:28PM 37.8972 -96.4058 75° East 451 519 41,000  Level Kansas City Center
10:29PM 37.9281 -96.2558 75° East 453 521 41,000  Level Kansas City Center
10:30PM 37.9653 -96.0750 75° East 452 520 41,000  Level Kansas City Center
10:31PM 37.9953 -95.9272 76° East 451 519 41,000  Level Kansas City Center
10:32PM 38.0258 -95.7800 75° East 451 519 41,000  Level Kansas City Center
10:34PM 38.0603 -95.6064 76° East 455 524 41,000  Level Kansas City Center
10:35PM 38.0894 -95.4592 76° East 454 522 41,000  Level Kansas City Center
10:36PM 38.1236 -95.2869 76° East 452 520 41,000  Level Kansas City Center
10:37PM 38.1531 -95.1397 76° East 450 518 41,000  Level Kansas City Center
10:38PM 38.1819 -94.9925 76° East 448 516 41,000  Level Kansas City Center
10:39PM 38.2147 -94.8208 76° East 450 518 41,000  Level Kansas City Center
10:40PM 38.2439 -94.6739 76° East 450 518 41,000  Level Kansas City Center
10:41PM 38.2758 -94.5011 77° East 450 518 41,000  Level Kansas City Center
10:42PM 38.3033 -94.3558 76° East 448 516 41,000  Level Kansas City Center
10:43PM 38.3317 -94.2097 76° East 447 514 41,000  Level Kansas City Center
10:44PM 38.3633 -94.0331 77° East 446 513 41,000  Level Kansas City Center
10:45PM 38.3919 -93.8772 77° East 448 516 41,000  Level Kansas City Center
10:46PM 38.4208 -93.7219 77° East 448 516 41,000  Level Kansas City Center
10:47PM 38.4494 -93.5642 77° East 452 520 41,000  Level Kansas City Center
10:48PM 38.4781 -93.4069 77° East 453 521 41,000  Level Kansas City Center
10:49PM 38.5061 -93.2486 77° East 453 521 41,000  Level Kansas City Center
10:50PM 38.5339 -93.0911 77° East 452 520 41,000  Level Kansas City Center
10:51PM 38.5625 -92.9331 77° East 454 522 41,000  Level Kansas City Center
10:52PM 38.5894 -92.7750 78° East 453 521 41,000  Level Kansas City Center
10:53PM 38.6167 -92.6189 77° East 449 517 41,000  Level Kansas City Center
10:54PM 38.6436 -92.4636 77° East 445 512 41,000  Level Kansas City Center
10:55PM 38.6692 -92.3061 78° East 446 513 41,000  Level Kansas City Center
10:56PM 38.6950 -92.1519 78° East 443 510 41,000  Level Kansas City Center
10:57PM 38.7214 -91.9981 78° East 441 507 41,000  Level Kansas City Center
10:58PM 38.7469 -91.8431 78° East 441 507 41,000  Level Kansas City Center
10:59PM 38.7719 -91.6917 78° East 442 509 41,000  Level Kansas City Center
11:00PM 38.7961 -91.5356 79° East 445 512 41,000  Level Kansas City Center
11:01PM 38.8217 -91.3825 78° East 442 509 41,000  Level Kansas City Center
11:02PM 38.8461 -91.2286 78° East 442 509 41,000  Level Kansas City Center
11:03PM 38.8703 -91.0756 78° East 439 505 41,000  Level Kansas City Center
11:04PM 38.8994 -90.8906 78° East 440 506 41,000  Level Kansas City Center
11:05PM 38.9242 -90.7361 78° East 440 506 41,000  Level Kansas City Center
11:06PM 38.9486 -90.5778 79° East 445 512 41,000  Level Kansas City Center
11:07PM 38.9733 -90.4183 79° East 449 517 41,000  Level Kansas City Center
11:08PM 38.9978 -90.2589 79° East 450 518 41,000  Level Kansas City Center
11:09PM 39.0211 -90.0997 79° East 450 518 41,000  Level Kansas City Center
11:10PM 39.0464 -89.9292 79° East 452 520 41,000  Level Kansas City Center
11:11PM 39.0694 -89.7700 79° East 452 520 41,000  Level Kansas City Center
11:12PM 39.0925 -89.6100 79° East 453 521 41,000  Level Kansas City Center
11:13PM 39.1144 -89.4511 80° East 452 520 41,000  Level Kansas City Center
11:14PM 39.1367 -89.2936 80° East 449 517 41,000  Level Kansas City Center
11:15PM 39.1569 -89.1492 80° East 446 513 41,000  Level Kansas City Center
11:16PM 39.1806 -88.9944 79° East 443 510 41,000  Level Kansas City Center
11:17PM 39.2008 -88.8375 80° East 443 510 41,000  Level Kansas City Center
11:18PM 39.2228 -88.6831 80° East 442 509 41,000  Level Kansas City Center
11:19PM 39.2456 -88.5244 79° East 442 509 41,000  Level Kansas City Center
11:20PM 39.2664 -88.3700 80° East 440 506 41,000  Level Kansas City Center
11:21PM 39.2869 -88.2139 80° East 439 505 41,000  Level Kansas City Center
11:22PM 39.3114 -88.0258 80° East 440 506 41,000  Level Kansas City Center
11:23PM 39.3308 -87.8678 81° East 442 509 41,000  Level Kansas City Center
11:24PM 39.3417 -87.7767 81° East 441 507 41,000  Level Indianapolis Center
11:25PM 39.3622 -87.6189 80° East 437 503 41,000  Level Indianapolis Center
11:26PM 39.3825 -87.4633 80° East 440 506 41,000  Level Indianapolis Center
11:27PM 39.4022 -87.3072 81° East 442 509 41,000  Level Indianapolis Center
11:28PM 39.4206 -87.1497 81° East 445 512 41,000  Level Indianapolis Center
11:29PM 39.4400 -86.9947 81° East 439 505 41,000  Level Indianapolis Center
11:30PM 39.4589 -86.8378 81° East 444 511 41,000  Level Indianapolis Center
11:32PM 39.4981 -86.4939 81° East 443 510 41,000  Level Indianapolis Center
11:33PM 39.5169 -86.3381 81° East 445 512 41,000  Level Indianapolis Center
11:34PM 39.5339 -86.1825 82° East 446 513 41,000  Level Indianapolis Center
11:35PM 39.5517 -86.0272 82° East 443 510 41,000  Level Indianapolis Center
11:36PM 39.5700 -85.8722 81° East 442 509 41,000  Level Indianapolis Center
11:37PM 39.5867 -85.7158 82° East 442 509 41,000  Level Indianapolis Center
11:38PM 39.6042 -85.5614 82° East 437 503 41,000  Level Indianapolis Center
11:39PM 39.6208 -85.4061 82° East 436 502 41,000  Level Indianapolis Center
11:40PM 39.6369 -85.2528 82° East 433 498 41,000  Level Indianapolis Center
11:41PM 39.6489 -85.0978 84° East 434 499 41,000  Level Indianapolis Center
11:42PM 39.6586 -84.9114 86° East 434 499 41,000  Level Indianapolis Center
11:43PM 39.6686 -84.7597 85° East 435 501 41,000  Level Indianapolis Center
11:44PM 39.6794 -84.6008 85° East 439 505 41,000  Level Indianapolis Center
11:45PM 39.6881 -84.4400 86° East 443 510 41,000  Level Indianapolis Center
11:46PM 39.6975 -84.2781 86° East 447 514 41,000  Level Indianapolis Center
11:47PM 39.7067 -84.1136 86° East 452 520 41,000  Level Indianapolis Center
11:48PM 39.7158 -83.9481 86° East 455 524 41,000  Level Indianapolis Center
11:49PM 39.7242 -83.7831 86° East 458 527 41,000  Level Indianapolis Center
11:50PM 39.7319 -83.6189 86° East 456 525 41,000  Level Indianapolis Center
11:51PM 39.7408 -83.4586 86° East 461 531 41,000  Level Indianapolis Center
11:52PM 39.7494 -83.2922 86° East 459 528 41,000  Level Indianapolis Center
11:53PM 39.7567 -83.1269 87° East 458 527 41,000  Level Indianapolis Center
11:54PM 39.7642 -82.9628 87° East 455 524 41,000  Level Indianapolis Center
11:55PM 39.7717 -82.7978 87° East 455 524 41,000  Level Indianapolis Center
11:56PM 39.7789 -82.6339 87° East 453 521 41,000  Level Indianapolis Center
11:57PM 39.7867 -82.4439 87° East 448 516 41,000  Level Indianapolis Center
11:58PM 39.7939 -82.2828 87° East 445 512 41,000  Level Indianapolis Center
11:59PM 39.7994 -82.1217 87° East 444 511 41,000  Level Indianapolis Center
12:00AM 39.7956 -81.9611 92° East 443 510 41,000  Level Indianapolis Center
12:02AM 39.7814 -81.7994 96° East 446 513 41,000  Level Indianapolis Center
12:03AM 39.7678 -81.6400 96° East 440 506 41,000  Level Indianapolis Center
12:04AM 39.7611 -81.4986 93° East 443 510 41,000  Level Cleveland Center
12:05AM 39.7458 -81.3392 97° East 443 510 41,000  Level Cleveland Center
12:05AM 39.7300 -81.1797 97° East 443 510 41,000  Level Cleveland Center
12:06AM 39.7161 -81.0203 96° East 443 510 41,000  Level Cleveland Center
12:08AM 39.7019 -80.8611 97° East 443 510 41,000  Level Cleveland Center
12:09AM 39.6897 -80.7044 96° East 443 510 41,000  Level Cleveland Center
12:10AM 39.6597 -80.3897 97° East 443 510 41,000  Level Washington Center
12:11AM 39.6453 -80.2297 97° East 443 510 41,000  Level Washington Center
12:12AM 39.6283 -80.0697 98° East 449 517 41,000  Level Washington Center
12:14AM 39.6114 -79.9069 98° East 449 517 41,000  Level Washington Center
12:15AM 39.5942 -79.7469 98° East 449 517 41,000  Level Washington Center
12:16AM 39.5789 -79.5844 97° East 449 517 41,000  Level Washington Center
12:16AM 39.5633 -79.4222 97° East 449 517 41,000  Level Washington Center
12:17AM 39.5439 -79.2408 98° East 449 517 41,000 -1,020 Level Washington Center
12:18AM 39.5256 -79.0811 98° East 455 524 39,000 -2,460 Descending Washington Center
12:19AM 39.5094 -78.9189 97° East 450 518 36,200 -3,240 Descending Washington Center
12:20AM 39.4889 -78.7539 99° East 450 518 32,600 -3,660 Descending Washington Center
12:21AM 39.4703 -78.5864 98° East 456 525 28,900 -3,420 Descending Washington Center
12:22AM 39.4514 -78.4217 98° East 466 536 25,800 -3,000 Descending Washington Center
12:23AM 39.4339 -78.2706 98° East 458 527 22,900 -2,820 Descending Washington Center
12:24AM 39.4161 -78.1247 99° East 430 495 20,200 -2,580 Descending Washington Center
12:25AM 39.4022 -77.9872 97° East 404 465 17,800 -2,580 Descending Washington Center
12:26AM 39.3864 -77.8472 98° East 390 449 15,100 -2,040 Descending Washington Center
12:28AM 39.3822 -77.7236 92° East 368 423 13,700 -1,560 Descending Washington Center
12:29AM 39.3550 -77.6100 107° East 346 398 12,000 -1,260 Descending Washington Center
12:29AM 39.3500 -77.5667 98° East 320 368 12,000  Level Potomac TRACON
12:30AM 39.3167 -77.4667 113° Southeast 314 361 12,000 -1,080 Level Potomac TRACON
12:31AM 39.3000 -77.3667 102° East 313 360 10,000 -2,040 Descending Potomac TRACON
12:32AM 39.2667 -77.2500 110° East 304 350 8,000 -1,860 Descending Potomac TRACON
12:33AM 39.2500 -77.1500 102° East 285 328 6,300 -1,860 Descending Potomac TRACON
12:34AM 39.2333 -77.0667 104° East 275 316 4,300 -1,920 Descending Potomac TRACON
12:35AM 39.2000 -76.9667 113° Southeast 266 306 2,500 -960 Descending Potomac TRACON
12:36AM 39.1833 -76.9000 108° East 205 236 2,500  Level Potomac TRACON
12:37AM 39.1833 -76.8500 90° East 134 154 2,500 -300 Level Potomac TRACON
12:38AM 39.1833 -76.8000 90° East 122 140 1,900 -600 Descending Potomac TRACON
12:39AM 39.1833 -76.7667 90° East 122 140 1,300 -660 Descending Potomac TRACON
12:40AM 39.1833 -76.7167 90° East 123 142 600 -720 Descending Potomac TRACON
12:42AM 39.1667 -76.6667 142° Southeast  Level FlightAware Approximate
12:49AM 39.1754 -76.6683 142° Southeast  Level Estimated
12:50AM 39.1754 -76.6683 142° Southeast  Level Estimated
12:51AM 39.1754 -76.6683 142° Southeast  Level Estimated
12:52AM 39.1754 -76.6683 142° Southeast  Level Estimated